sensor_id;sensor_type;location;lat;lon;timestamp;pressure;altitude;pressure_sealevel;temperature;humidity
76694;BME280;69667;52.136;5.424;2023-07-20T00:01:35;101500.31;;;16.92;87.75
76694;BME280;69667;52.136;5.424;2023-07-20T00:04:02;101496.72;;;16.92;88.17
76694;BME280;69667;52.136;5.424;2023-07-20T00:06:28;101496.28;;;16.87;88.06
76694;BME280;69667;52.136;5.424;2023-07-20T00:08:55;101494.69;;;16.84;88.77
76694;BME280;69667;52.136;5.424;2023-07-20T00:11:25;101488.09;;;16.87;88.50
76694;BME280;69667;52.136;5.424;2023-07-20T00:13:52;101496.56;;;16.84;88.60
76694;BME280;69667;52.136;5.424;2023-07-20T00:16:19;101495.69;;;16.74;88.34
76694;BME280;69667;52.136;5.424;2023-07-20T00:18:46;101496.94;;;16.70;89.14
76694;BME280;69667;52.136;5.424;2023-07-20T00:21:13;101493.78;;;16.65;88.11
76694;BME280;69667;52.136;5.424;2023-07-20T00:23:39;101493.19;;;16.61;88.41
76694;BME280;69667;52.136;5.424;2023-07-20T00:26:06;101490.16;;;16.55;88.67
76694;BME280;69667;52.136;5.424;2023-07-20T00:28:32;101495.59;;;16.55;89.18
76694;BME280;69667;52.136;5.424;2023-07-20T00:31:02;101497.19;;;16.57;88.96
76694;BME280;69667;52.136;5.424;2023-07-20T00:33:29;101491.16;;;16.54;89.63
76694;BME280;69667;52.136;5.424;2023-07-20T00:35:56;101501.19;;;16.53;89.83
76694;BME280;69667;52.136;5.424;2023-07-20T00:38:22;101500.47;;;16.51;89.54
76694;BME280;69667;52.136;5.424;2023-07-20T00:40:49;101488.25;;;16.46;89.82
76694;BME280;69667;52.136;5.424;2023-07-20T00:43:17;101491.47;;;16.39;89.46
76694;BME280;69667;52.136;5.424;2023-07-20T00:45:43;101487.72;;;16.31;89.59
76694;BME280;69667;52.136;5.424;2023-07-20T00:48:10;101499.75;;;16.28;89.70
76694;BME280;69667;52.136;5.424;2023-07-20T00:50:39;101499.81;;;16.17;89.88
76694;BME280;69667;52.136;5.424;2023-07-20T00:53:08;101500.25;;;16.13;90.38
76694;BME280;69667;52.136;5.424;2023-07-20T00:55:35;101497.66;;;16.11;90.08
76694;BME280;69667;52.136;5.424;2023-07-20T00:58:02;101496.78;;;16.11;90.15
76694;BME280;69667;52.136;5.424;2023-07-20T01:00:28;101501.63;;;16.07;89.82
76694;BME280;69667;52.136;5.424;2023-07-20T01:02:55;101495.72;;;16.02;89.74
76694;BME280;69667;52.136;5.424;2023-07-20T01:05:27;101496.53;;;15.93;90.04
76694;BME280;69667;52.136;5.424;2023-07-20T01:08:04;101495.34;;;15.86;89.64
76694;BME280;69667;52.136;5.424;2023-07-20T01:10:39;101505.44;;;15.75;90.10
76694;BME280;69667;52.136;5.424;2023-07-20T01:13:09;101504.84;;;15.71;89.98
76694;BME280;69667;52.136;5.424;2023-07-20T01:15:37;101513.13;;;15.70;90.40
76694;BME280;69667;52.136;5.424;2023-07-20T01:18:04;101511.66;;;15.66;90.20
76694;BME280;69667;52.136;5.424;2023-07-20T01:20:32;101503.28;;;15.58;89.97
76694;BME280;69667;52.136;5.424;2023-07-20T01:33:44;101509.25;;;15.20;90.49
76694;BME280;69667;52.136;5.424;2023-07-20T01:36:13;101508.63;;;15.16;90.73
76694;BME280;69667;52.136;5.424;2023-07-20T01:38:41;101516.19;;;15.13;91.00
76694;BME280;69667;52.136;5.424;2023-07-20T01:41:08;101507.53;;;15.08;90.88
76694;BME280;69667;52.136;5.424;2023-07-20T01:43:35;101504.22;;;15.04;90.93
76694;BME280;69667;52.136;5.424;2023-07-20T01:46:02;101506.72;;;14.96;90.95
76694;BME280;69667;52.136;5.424;2023-07-20T01:48:28;101506.22;;;14.91;91.09
76694;BME280;69667;52.136;5.424;2023-07-20T01:50:55;101503.91;;;14.87;90.63
76694;BME280;69667;52.136;5.424;2023-07-20T01:53:22;101509.69;;;14.82;90.62
76694;BME280;69667;52.136;5.424;2023-07-20T01:55:49;101511.91;;;14.77;90.79
76694;BME280;69667;52.136;5.424;2023-07-20T01:58:16;101509.59;;;14.73;90.99
76694;BME280;69667;52.136;5.424;2023-07-20T02:00:43;101520.72;;;14.70;90.79
76694;BME280;69667;52.136;5.424;2023-07-20T02:03:10;101520.22;;;14.65;90.79
76694;BME280;69667;52.136;5.424;2023-07-20T02:05:38;101522.19;;;14.63;90.81
76694;BME280;69667;52.136;5.424;2023-07-20T02:08:05;101512.56;;;14.59;90.64
76694;BME280;69667;52.136;5.424;2023-07-20T02:10:32;101512.81;;;14.56;90.48
76694;BME280;69667;52.136;5.424;2023-07-20T02:12:58;101519.38;;;14.53;91.14
76694;BME280;69667;52.136;5.424;2023-07-20T02:15:26;101515.53;;;14.56;91.20
76694;BME280;69667;52.136;5.424;2023-07-20T02:17:53;101513.78;;;14.66;91.37
76694;BME280;69667;52.136;5.424;2023-07-20T02:20:20;101512.06;;;14.76;91.60
76694;BME280;69667;52.136;5.424;2023-07-20T02:22:47;101521.44;;;14.83;91.35
76694;BME280;69667;52.136;5.424;2023-07-20T02:25:14;101515.00;;;14.84;91.58
76694;BME280;69667;52.136;5.424;2023-07-20T02:27:40;101522.31;;;14.83;91.55
76694;BME280;69667;52.136;5.424;2023-07-20T02:30:07;101518.72;;;14.83;91.49
76694;BME280;69667;52.136;5.424;2023-07-20T02:32:36;101516.66;;;14.75;91.58
76694;BME280;69667;52.136;5.424;2023-07-20T02:35:03;101518.97;;;14.69;91.43
76694;BME280;69667;52.136;5.424;2023-07-20T02:37:30;101517.16;;;14.58;91.34
76694;BME280;69667;52.136;5.424;2023-07-20T02:39:57;101513.06;;;14.53;91.01
76694;BME280;69667;52.136;5.424;2023-07-20T02:42:23;101519.97;;;14.46;91.32
76694;BME280;69667;52.136;5.424;2023-07-20T02:44:52;101516.03;;;14.39;91.15
76694;BME280;69667;52.136;5.424;2023-07-20T02:47:18;101518.25;;;14.34;91.47
76694;BME280;69667;52.136;5.424;2023-07-20T02:49:45;101510.81;;;14.25;91.37
76694;BME280;69667;52.136;5.424;2023-07-20T02:52:12;101514.00;;;14.19;91.35
76694;BME280;69667;52.136;5.424;2023-07-20T02:54:39;101520.69;;;14.15;91.32
76694;BME280;69667;52.136;5.424;2023-07-20T02:57:06;101529.19;;;14.10;91.23
76694;BME280;69667;52.136;5.424;2023-07-20T02:59:33;101529.66;;;14.04;91.34
76694;BME280;69667;52.136;5.424;2023-07-20T03:01:59;101543.34;;;14.02;91.91
76694;BME280;69667;52.136;5.424;2023-07-20T03:04:26;101549.03;;;13.99;91.43
76694;BME280;69667;52.136;5.424;2023-07-20T03:06:53;101542.97;;;13.96;91.36
76694;BME280;69667;52.136;5.424;2023-07-20T03:09:20;101545.06;;;13.92;91.39
76694;BME280;69667;52.136;5.424;2023-07-20T03:11:47;101552.13;;;13.95;91.38
76694;BME280;69667;52.136;5.424;2023-07-20T03:14:13;101553.19;;;13.92;91.24
76694;BME280;69667;52.136;5.424;2023-07-20T03:16:40;101566.78;;;13.92;91.21
76694;BME280;69667;52.136;5.424;2023-07-20T03:19:07;101559.63;;;13.91;91.24
76694;BME280;69667;52.136;5.424;2023-07-20T03:21:34;101566.03;;;13.90;91.01
76694;BME280;69667;52.136;5.424;2023-07-20T03:24:01;101574.41;;;13.87;91.20
76694;BME280;69667;52.136;5.424;2023-07-20T03:26:27;101571.06;;;13.84;91.33
76694;BME280;69667;52.136;5.424;2023-07-20T03:28:54;101569.47;;;13.81;91.70
76694;BME280;69667;52.136;5.424;2023-07-20T03:31:21;101573.13;;;13.80;91.70
76694;BME280;69667;52.136;5.424;2023-07-20T03:33:47;101560.44;;;13.81;91.79
76694;BME280;69667;52.136;5.424;2023-07-20T03:36:14;101557.72;;;13.81;91.68
76694;BME280;69667;52.136;5.424;2023-07-20T03:38:41;101560.56;;;13.79;91.71
76694;BME280;69667;52.136;5.424;2023-07-20T03:41:07;101559.31;;;13.72;91.72
76694;BME280;69667;52.136;5.424;2023-07-20T03:43:34;101558.03;;;13.65;92.01
76694;BME280;69667;52.136;5.424;2023-07-20T03:46:01;101563.69;;;13.62;92.13
76694;BME280;69667;52.136;5.424;2023-07-20T03:48:34;101558.16;;;13.64;91.80
76694;BME280;69667;52.136;5.424;2023-07-20T03:51:00;101566.53;;;13.61;91.99
76694;BME280;69667;52.136;5.424;2023-07-20T03:53:27;101560.25;;;13.60;91.70
76694;BME280;69667;52.136;5.424;2023-07-20T03:55:54;101570.38;;;13.58;91.82
76694;BME280;69667;52.136;5.424;2023-07-20T03:58:21;101564.94;;;13.58;91.81
76694;BME280;69667;52.136;5.424;2023-07-20T04:00:49;101561.22;;;13.59;91.80
76694;BME280;69667;52.136;5.424;2023-07-20T04:03:17;101569.38;;;13.59;91.61
76694;BME280;69667;52.136;5.424;2023-07-20T04:05:45;101563.94;;;13.59;91.95
76694;BME280;69667;52.136;5.424;2023-07-20T04:08:12;101570.97;;;13.62;91.89
76694;BME280;69667;52.136;5.424;2023-07-20T04:10:39;101574.94;;;13.69;91.86
76694;BME280;69667;52.136;5.424;2023-07-20T04:13:05;101582.84;;;13.72;91.88
76694;BME280;69667;52.136;5.424;2023-07-20T04:15:33;101575.66;;;13.83;91.75
76694;BME280;69667;52.136;5.424;2023-07-20T04:18:00;101588.25;;;13.95;92.09
76694;BME280;69667;52.136;5.424;2023-07-20T04:20:27;101586.34;;;14.09;92.29
76694;BME280;69667;52.136;5.424;2023-07-20T04:22:54;101584.13;;;14.25;91.27
76694;BME280;69667;52.136;5.424;2023-07-20T04:25:21;101586.41;;;14.42;91.75
76694;BME280;69667;52.136;5.424;2023-07-20T04:27:48;101591.09;;;14.51;91.63
76694;BME280;69667;52.136;5.424;2023-07-20T04:30:17;101589.38;;;14.50;91.00
76694;BME280;69667;52.136;5.424;2023-07-20T04:32:46;101592.47;;;14.45;91.16
76694;BME280;69667;52.136;5.424;2023-07-20T04:35:51;101591.09;;;14.40;91.14
76694;BME280;69667;52.136;5.424;2023-07-20T04:38:22;101591.69;;;14.32;91.40
76694;BME280;69667;52.136;5.424;2023-07-20T04:40:58;101597.63;;;14.26;91.18
76694;BME280;69667;52.136;5.424;2023-07-20T04:43:28;101593.63;;;14.19;91.31
76694;BME280;69667;52.136;5.424;2023-07-20T04:45:55;101612.75;;;14.18;91.64
76694;BME280;69667;52.136;5.424;2023-07-20T04:48:22;101606.56;;;14.16;91.84
76694;BME280;69667;52.136;5.424;2023-07-20T04:50:51;101608.44;;;14.15;91.56
76694;BME280;69667;52.136;5.424;2023-07-20T04:53:18;101608.44;;;14.15;91.40
76694;BME280;69667;52.136;5.424;2023-07-20T04:55:49;101603.72;;;14.17;91.71
76694;BME280;69667;52.136;5.424;2023-07-20T04:58:19;101609.78;;;14.21;91.55
76694;BME280;69667;52.136;5.424;2023-07-20T05:00:46;101604.22;;;14.22;91.32
76694;BME280;69667;52.136;5.424;2023-07-20T05:03:13;101610.66;;;14.21;91.01
76694;BME280;69667;52.136;5.424;2023-07-20T05:05:39;101607.81;;;14.23;91.48
76694;BME280;69667;52.136;5.424;2023-07-20T05:08:06;101605.84;;;14.25;91.14
76694;BME280;69667;52.136;5.424;2023-07-20T05:10:33;101600.97;;;14.30;91.62
76694;BME280;69667;52.136;5.424;2023-07-20T05:13:00;101609.63;;;14.35;91.45
76694;BME280;69667;52.136;5.424;2023-07-20T05:15:26;101606.41;;;14.41;91.43
76694;BME280;69667;52.136;5.424;2023-07-20T05:17:54;101612.09;;;14.49;91.71
76694;BME280;69667;52.136;5.424;2023-07-20T05:20:22;101608.91;;;14.55;91.80
76694;BME280;69667;52.136;5.424;2023-07-20T05:22:49;101603.72;;;14.63;91.70
76694;BME280;69667;52.136;5.424;2023-07-20T05:25:16;101602.25;;;14.70;91.49
76694;BME280;69667;52.136;5.424;2023-07-20T05:27:45;101601.75;;;14.76;91.33
76694;BME280;69667;52.136;5.424;2023-07-20T05:30:12;101602.97;;;14.83;91.56
76694;BME280;69667;52.136;5.424;2023-07-20T05:32:39;101604.22;;;14.90;90.82
76694;BME280;69667;52.136;5.424;2023-07-20T05:35:06;101606.19;;;14.99;90.82
76694;BME280;69667;52.136;5.424;2023-07-20T05:37:33;101610.25;;;15.04;90.92
76694;BME280;69667;52.136;5.424;2023-07-20T05:40:00;101609.75;;;15.10;90.83
76694;BME280;69667;52.136;5.424;2023-07-20T05:42:27;101612.34;;;15.23;90.48
76694;BME280;69667;52.136;5.424;2023-07-20T05:44:53;101613.94;;;15.37;90.33
76694;BME280;69667;52.136;5.424;2023-07-20T05:47:21;101606.97;;;15.55;90.28
76694;BME280;69667;52.136;5.424;2023-07-20T05:49:48;101607.28;;;16.66;89.13
76694;BME280;69667;52.136;5.424;2023-07-20T05:52:14;101594.88;;;19.38;79.28
76694;BME280;69667;52.136;5.424;2023-07-20T05:54:41;101588.16;;;21.89;69.83
76694;BME280;69667;52.136;5.424;2023-07-20T05:57:08;101580.34;;;23.97;61.52
76694;BME280;69667;52.136;5.424;2023-07-20T05:59:34;101580.44;;;25.86;55.13
76694;BME280;69667;52.136;5.424;2023-07-20T06:02:01;101576.03;;;27.23;50.18
76694;BME280;69667;52.136;5.424;2023-07-20T06:04:28;101589.97;;;26.40;49.38
76694;BME280;69667;52.136;5.424;2023-07-20T06:06:55;101595.03;;;24.34;54.67
76694;BME280;69667;52.136;5.424;2023-07-20T06:09:21;101589.94;;;25.98;51.32
76694;BME280;69667;52.136;5.424;2023-07-20T06:11:48;101586.34;;;27.29;47.69
76694;BME280;69667;52.136;5.424;2023-07-20T06:14:15;101593.66;;;27.97;46.03
76694;BME280;69667;52.136;5.424;2023-07-20T06:16:41;101600.09;;;27.50;46.09
76694;BME280;69667;52.136;5.424;2023-07-20T06:19:08;101604.47;;;26.21;48.65
76694;BME280;69667;52.136;5.424;2023-07-20T06:21:38;101607.06;;;24.19;53.99
76694;BME280;69667;52.136;5.424;2023-07-20T06:24:05;101607.72;;;22.90;57.82
76694;BME280;69667;52.136;5.424;2023-07-20T06:26:31;101605.38;;;22.07;60.50
76694;BME280;69667;52.136;5.424;2023-07-20T06:29:05;101609.59;;;24.28;55.65
76694;BME280;69667;52.136;5.424;2023-07-20T06:31:38;101601.72;;;24.77;55.57
76694;BME280;69667;52.136;5.424;2023-07-20T06:34:05;101604.66;;;25.63;49.18
76694;BME280;69667;52.136;5.424;2023-07-20T06:36:32;101600.09;;;27.50;47.25
76694;BME280;69667;52.136;5.424;2023-07-20T06:39:00;101598.41;;;28.94;43.14
76694;BME280;69667;52.136;5.424;2023-07-20T06:41:29;101605.53;;;25.63;49.58
76694;BME280;69667;52.136;5.424;2023-07-20T06:43:59;101613.63;;;25.65;51.59
76694;BME280;69667;52.136;5.424;2023-07-20T06:46:28;101623.25;;;25.11;50.90
76694;BME280;69667;52.136;5.424;2023-07-20T06:49:00;101622.47;;;23.13;54.34
76694;BME280;69667;52.136;5.424;2023-07-20T06:51:44;101629.19;;;21.74;59.01
76694;BME280;69667;52.136;5.424;2023-07-20T06:54:11;101631.03;;;20.90;63.33
76694;BME280;69667;52.136;5.424;2023-07-20T06:56:41;101630.91;;;21.33;62.64
76694;BME280;69667;52.136;5.424;2023-07-20T06:59:12;101631.09;;;20.98;62.81
76694;BME280;69667;52.136;5.424;2023-07-20T07:01:42;101637.59;;;20.29;66.52
76694;BME280;69667;52.136;5.424;2023-07-20T07:04:08;101636.03;;;19.91;68.70
76694;BME280;69667;52.136;5.424;2023-07-20T07:06:36;101641.09;;;19.68;69.89
76694;BME280;69667;52.136;5.424;2023-07-20T07:09:03;101633.34;;;19.37;67.29
76694;BME280;69667;52.136;5.424;2023-07-20T07:11:30;101637.97;;;19.27;66.99
76694;BME280;69667;52.136;5.424;2023-07-20T07:13:57;101636.56;;;19.32;65.88
76694;BME280;69667;52.136;5.424;2023-07-20T07:16:23;101632.72;;;19.43;69.45
76694;BME280;69667;52.136;5.424;2023-07-20T07:18:51;101633.09;;;19.57;66.10
76694;BME280;69667;52.136;5.424;2023-07-20T07:21:17;101633.19;;;19.65;64.82
76694;BME280;69667;52.136;5.424;2023-07-20T07:23:46;101621.34;;;21.38;67.02
76694;BME280;69667;52.136;5.424;2023-07-20T07:26:12;101618.03;;;25.45;53.56
76694;BME280;69667;52.136;5.424;2023-07-20T07:28:39;101629.53;;;23.54;54.27
76694;BME280;69667;52.136;5.424;2023-07-20T07:31:06;101631.50;;;22.27;59.08
76694;BME280;69667;52.136;5.424;2023-07-20T07:33:33;101629.22;;;21.32;60.29
76694;BME280;69667;52.136;5.424;2023-07-20T07:35:59;101637.66;;;21.05;63.41
76694;BME280;69667;52.136;5.424;2023-07-20T07:38:28;101631.94;;;20.73;63.72
76694;BME280;69667;52.136;5.424;2023-07-20T07:41:16;101643.50;;;20.59;63.17
76694;BME280;69667;52.136;5.424;2023-07-20T07:43:42;101641.81;;;20.41;62.48
76694;BME280;69667;52.136;5.424;2023-07-20T07:46:09;101646.94;;;20.61;63.38
76694;BME280;69667;52.136;5.424;2023-07-20T07:48:36;101649.59;;;20.71;65.27
76694;BME280;69667;52.136;5.424;2023-07-20T07:51:02;101638.47;;;24.77;54.02
76694;BME280;69667;52.136;5.424;2023-07-20T07:53:29;101625.84;;;27.37;46.25
76694;BME280;69667;52.136;5.424;2023-07-20T07:55:56;101623.41;;;29.07;41.55
76694;BME280;69667;52.136;5.424;2023-07-20T07:58:23;101619.66;;;30.41;37.62
76694;BME280;69667;52.136;5.424;2023-07-20T08:00:49;101618.38;;;31.11;36.34
76694;BME280;69667;52.136;5.424;2023-07-20T08:03:16;101626.25;;;31.74;35.14
76694;BME280;69667;52.136;5.424;2023-07-20T08:05:43;101617.72;;;31.69;34.20
76694;BME280;69667;52.136;5.424;2023-07-20T08:08:09;101613.81;;;31.88;32.57
76694;BME280;69667;52.136;5.424;2023-07-20T08:10:36;101619.50;;;31.64;33.53
76694;BME280;69667;52.136;5.424;2023-07-20T08:13:03;101621.31;;;32.06;33.56
76694;BME280;69667;52.136;5.424;2023-07-20T08:15:29;101617.13;;;31.97;33.43
76694;BME280;69667;52.136;5.424;2023-07-20T08:17:56;101610.53;;;31.91;31.20
76694;BME280;69667;52.136;5.424;2023-07-20T08:20:23;101603.19;;;31.07;33.39
76694;BME280;69667;52.136;5.424;2023-07-20T08:22:54;101612.75;;;31.53;33.83
76694;BME280;69667;52.136;5.424;2023-07-20T08:25:21;101612.44;;;31.43;30.21
76694;BME280;69667;52.136;5.424;2023-07-20T08:27:48;101616.47;;;31.29;31.20
76694;BME280;69667;52.136;5.424;2023-07-20T08:30:15;101623.03;;;31.17;29.84
76694;BME280;69667;52.136;5.424;2023-07-20T08:32:41;101616.53;;;31.23;34.43
76694;BME280;69667;52.136;5.424;2023-07-20T08:35:08;101615.13;;;31.32;30.04
76694;BME280;69667;52.136;5.424;2023-07-20T08:37:35;101613.63;;;31.36;30.09
76694;BME280;69667;52.136;5.424;2023-07-20T08:40:02;101622.53;;;30.77;32.28
76694;BME280;69667;52.136;5.424;2023-07-20T08:42:35;101622.78;;;30.75;32.99
76694;BME280;69667;52.136;5.424;2023-07-20T08:45:05;101624.03;;;29.86;32.14
76694;BME280;69667;52.136;5.424;2023-07-20T08:47:33;101627.03;;;28.29;33.07
76694;BME280;69667;52.136;5.424;2023-07-20T08:50:00;101622.53;;;27.55;35.15
76694;BME280;69667;52.136;5.424;2023-07-20T08:52:29;101624.88;;;27.52;37.97
76694;BME280;69667;52.136;5.424;2023-07-20T08:54:55;101633.28;;;28.51;35.85
76694;BME280;69667;52.136;5.424;2023-07-20T08:57:22;101622.50;;;29.39;34.85
76694;BME280;69667;52.136;5.424;2023-07-20T08:59:49;101622.22;;;29.60;31.15
76694;BME280;69667;52.136;5.424;2023-07-20T09:02:19;101614.47;;;29.75;35.47
76694;BME280;69667;52.136;5.424;2023-07-20T09:04:50;101619.25;;;30.37;31.95
76694;BME280;69667;52.136;5.424;2023-07-20T09:07:17;101619.81;;;30.70;31.60
76694;BME280;69667;52.136;5.424;2023-07-20T09:09:46;101621.47;;;30.53;31.95
76694;BME280;69667;52.136;5.424;2023-07-20T09:12:17;101625.56;;;30.75;32.18
76694;BME280;69667;52.136;5.424;2023-07-20T09:14:44;101614.81;;;31.22;29.86
76694;BME280;69667;52.136;5.424;2023-07-20T09:17:14;101606.66;;;31.02;29.87
76694;BME280;69667;52.136;5.424;2023-07-20T09:19:48;101608.81;;;30.26;31.16
76694;BME280;69667;52.136;5.424;2023-07-20T09:22:15;101614.66;;;29.04;35.39
76694;BME280;69667;52.136;5.424;2023-07-20T09:25:25;101618.00;;;27.48;34.52
76694;BME280;69667;52.136;5.424;2023-07-20T09:27:56;101619.44;;;26.27;37.07
76694;BME280;69667;52.136;5.424;2023-07-20T09:30:25;101621.97;;;25.50;37.12
76694;BME280;69667;52.136;5.424;2023-07-20T09:32:58;101624.88;;;24.90;42.05
76694;BME280;69667;52.136;5.424;2023-07-20T09:35:25;101620.38;;;25.77;38.04
76694;BME280;69667;52.136;5.424;2023-07-20T09:37:59;101613.66;;;27.79;35.61
76694;BME280;69667;52.136;5.424;2023-07-20T09:40:29;101612.09;;;27.57;35.78
76694;BME280;69667;52.136;5.424;2023-07-20T09:42:59;101612.72;;;28.26;31.77
76694;BME280;69667;52.136;5.424;2023-07-20T09:45:33;101609.28;;;29.22;32.15
76694;BME280;69667;52.136;5.424;2023-07-20T09:48:04;101604.28;;;29.94;30.67
76694;BME280;69667;52.136;5.424;2023-07-20T09:50:40;101604.78;;;30.71;29.19
76694;BME280;69667;52.136;5.424;2023-07-20T09:53:11;101601.53;;;30.81;27.93
76694;BME280;69667;52.136;5.424;2023-07-20T09:55:40;101597.16;;;31.28;31.22
76694;BME280;69667;52.136;5.424;2023-07-20T09:58:09;101600.16;;;31.80;27.06
76694;BME280;69667;52.136;5.424;2023-07-20T10:00:37;101600.22;;;31.92;28.44
76694;BME280;69667;52.136;5.424;2023-07-20T10:03:08;101594.34;;;32.11;30.56
76694;BME280;69667;52.136;5.424;2023-07-20T10:05:39;101592.19;;;32.25;28.75
76694;BME280;69667;52.136;5.424;2023-07-20T10:08:12;101591.06;;;30.94;30.41
76694;BME280;69667;52.136;5.424;2023-07-20T10:10:42;101599.00;;;29.29;27.95
76694;BME280;69667;52.136;5.424;2023-07-20T10:13:27;101600.31;;;29.07;30.39
76694;BME280;69667;52.136;5.424;2023-07-20T10:16:06;101604.06;;;27.88;33.31
76694;BME280;69667;52.136;5.424;2023-07-20T10:18:50;101599.03;;;26.83;33.89
76694;BME280;69667;52.136;5.424;2023-07-20T10:24:14;101600.38;;;25.31;37.03
76694;BME280;69667;52.136;5.424;2023-07-20T10:26:43;101591.66;;;26.41;34.99
76694;BME280;69667;52.136;5.424;2023-07-20T10:29:10;101586.53;;;27.75;33.29
76694;BME280;69667;52.136;5.424;2023-07-20T10:31:38;101594.38;;;27.65;30.62
76694;BME280;69667;52.136;5.424;2023-07-20T10:34:05;101587.56;;;27.61;32.44
76694;BME280;69667;52.136;5.424;2023-07-20T10:36:31;101591.63;;;27.65;31.89
76694;BME280;69667;52.136;5.424;2023-07-20T10:38:58;101578.19;;;27.27;32.88
76694;BME280;69667;52.136;5.424;2023-07-20T10:41:33;101580.97;;;27.68;30.66
76694;BME280;69667;52.136;5.424;2023-07-20T10:44:07;101577.97;;;27.22;33.86
76694;BME280;69667;52.136;5.424;2023-07-20T10:46:44;101579.13;;;27.34;33.86
76694;BME280;69667;52.136;5.424;2023-07-20T10:49:13;101584.53;;;28.42;37.41
76694;BME280;69667;52.136;5.424;2023-07-20T10:51:46;101571.66;;;29.00;31.85
76694;BME280;69667;52.136;5.424;2023-07-20T10:56:49;101564.41;;;30.00;27.64
76694;BME280;69667;52.136;5.424;2023-07-20T11:01:50;101560.31;;;30.58;26.49
76694;BME280;69667;52.136;5.424;2023-07-20T11:04:19;101563.34;;;30.99;28.01
76694;BME280;69667;52.136;5.424;2023-07-20T11:06:46;101560.19;;;30.96;27.58
76694;BME280;69667;52.136;5.424;2023-07-20T11:09:25;101553.09;;;31.36;27.62
76694;BME280;69667;52.136;5.424;2023-07-20T11:12:18;101555.16;;;31.70;28.42
76694;BME280;69667;52.136;5.424;2023-07-20T11:14:54;101560.13;;;31.68;28.33
76694;BME280;69667;52.136;5.424;2023-07-20T11:17:30;101552.75;;;31.74;28.30
76694;BME280;69667;52.136;5.424;2023-07-20T11:20:01;101554.25;;;31.58;26.46
76694;BME280;69667;52.136;5.424;2023-07-20T11:22:33;101548.97;;;30.78;26.10
76694;BME280;69667;52.136;5.424;2023-07-20T11:25:00;101547.31;;;29.90;28.75
76694;BME280;69667;52.136;5.424;2023-07-20T11:27:26;101547.31;;;29.90;31.29
76694;BME280;69667;52.136;5.424;2023-07-20T11:29:54;101551.16;;;29.51;31.56
76694;BME280;69667;52.136;5.424;2023-07-20T11:32:22;101541.50;;;29.03;32.47
76694;BME280;69667;52.136;5.424;2023-07-20T11:34:49;101535.41;;;28.62;27.81
76694;BME280;69667;52.136;5.424;2023-07-20T11:37:19;101536.22;;;28.76;29.88
76694;BME280;69667;52.136;5.424;2023-07-20T11:39:46;101537.03;;;28.96;31.14
76694;BME280;69667;52.136;5.424;2023-07-20T11:42:13;101536.06;;;29.28;28.31
76694;BME280;69667;52.136;5.424;2023-07-20T11:45:02;101531.41;;;29.22;28.97
76694;BME280;69667;52.136;5.424;2023-07-20T11:47:31;101534.25;;;28.96;30.91
76694;BME280;69667;52.136;5.424;2023-07-20T11:50:03;101526.19;;;29.38;30.38
76694;BME280;69667;52.136;5.424;2023-07-20T11:52:30;101527.50;;;30.05;26.87
76694;BME280;69667;52.136;5.424;2023-07-20T11:55:00;101534.53;;;29.83;26.72
76694;BME280;69667;52.136;5.424;2023-07-20T11:57:26;101524.72;;;29.73;29.78
76694;BME280;69667;52.136;5.424;2023-07-20T11:59:56;101522.19;;;29.65;29.36
76694;BME280;69667;52.136;5.424;2023-07-20T12:02:27;101522.41;;;29.20;30.18
76694;BME280;69667;52.136;5.424;2023-07-20T12:04:54;101520.41;;;29.40;30.51
76694;BME280;69667;52.136;5.424;2023-07-20T12:07:21;101514.88;;;29.33;30.64
76694;BME280;69667;52.136;5.424;2023-07-20T12:10:10;101515.88;;;28.82;29.27
76694;BME280;69667;52.136;5.424;2023-07-20T12:12:38;101525.97;;;27.98;28.96
76694;BME280;69667;52.136;5.424;2023-07-20T12:17:44;101506.63;;;29.07;28.67
76694;BME280;69667;52.136;5.424;2023-07-20T12:20:12;101510.22;;;29.08;30.72
76694;BME280;69667;52.136;5.424;2023-07-20T12:22:40;101506.13;;;29.23;31.04
76694;BME280;69667;52.136;5.424;2023-07-20T12:25:07;101503.41;;;29.10;30.06
76694;BME280;69667;52.136;5.424;2023-07-20T12:27:37;101514.38;;;27.88;31.83
76694;BME280;69667;52.136;5.424;2023-07-20T12:30:05;101510.91;;;27.06;31.91
76694;BME280;69667;52.136;5.424;2023-07-20T12:32:32;101513.16;;;26.28;34.10
76694;BME280;69667;52.136;5.424;2023-07-20T12:34:59;101517.22;;;25.62;35.22
76694;BME280;69667;52.136;5.424;2023-07-20T12:37:26;101525.00;;;25.37;36.10
76694;BME280;69667;52.136;5.424;2023-07-20T12:39:53;101512.16;;;25.00;36.69
76694;BME280;69667;52.136;5.424;2023-07-20T12:42:20;101508.69;;;25.42;37.68
76694;BME280;69667;52.136;5.424;2023-07-20T12:44:47;101507.97;;;25.76;36.19
76694;BME280;69667;52.136;5.424;2023-07-20T12:47:13;101505.53;;;25.31;36.22
76694;BME280;69667;52.136;5.424;2023-07-20T12:49:41;101507.13;;;25.54;38.27
76694;BME280;69667;52.136;5.424;2023-07-20T12:52:11;101500.44;;;25.13;38.46
76694;BME280;69667;52.136;5.424;2023-07-20T12:54:38;101506.16;;;24.97;36.85
76694;BME280;69667;52.136;5.424;2023-07-20T12:57:05;101506.00;;;24.84;39.38
76694;BME280;69667;52.136;5.424;2023-07-20T12:59:35;101511.13;;;24.87;41.04
76694;BME280;69667;52.136;5.424;2023-07-20T13:02:02;101515.50;;;24.52;39.61
76694;BME280;69667;52.136;5.424;2023-07-20T13:04:29;101510.06;;;24.59;38.67
76694;BME280;69667;52.136;5.424;2023-07-20T13:06:56;101501.72;;;24.81;40.92
76694;BME280;69667;52.136;5.424;2023-07-20T13:09:25;101502.38;;;24.98;39.25
76694;BME280;69667;52.136;5.424;2023-07-20T13:11:51;101498.22;;;25.23;39.40
76694;BME280;69667;52.136;5.424;2023-07-20T13:14:19;101498.41;;;25.36;40.65
76694;BME280;69667;52.136;5.424;2023-07-20T13:16:45;101493.94;;;25.35;36.93
76694;BME280;69667;52.136;5.424;2023-07-20T13:19:12;101501.19;;;25.36;39.15